Du har inga inställningar för hoppväder.nu

Hoppväder.nu

Senast uppdaterat 13:35

UTC-tid

2021-12-07 kl. 12:35


Sol och måne

Solen går upp 8:25 och går ner 15:32 (beräknade cirkatider)
Nästa fullmåne blir om 12 dagar (2021-12-19)

METAR

ESMS (Malmö)
(15 minuter sedan)
ESMS 071220Z 15011KT 9999 BKN031 01/M06 Q1012=



ESMK (Everöd)
(15 minuter sedan)
ESMK 071220Z 15007KT 9999 BKN033 01/M05 Q1014=



ESTL (Ljungbyhed)
(15 minuter sedan)
ESTL 071220Z AUTO 09007KT 9999 OVC028/// M01/M04 Q1013=



EKCH (Köpenhamn)
(45 minuter sedan)
EKCH 071150Z AUTO 15016KT 9999 -RA OVC029/// 02/M03 Q1012 NOSIG=



ESTA (Ängelholm)
(15 minuter sedan)
ESTA 071220Z 10013KT 9999 BKN036 M01/M05 Q1012=



TAF

ESMS (Malmö)
(94 minuter sedan)
ESMS 071101Z 0712/0812 16012KT 9999 BKN025 TEMPO 0721/0808 17015G30KT 2000 SNRA BKN012 TEMPO 0808/0812 17015G30KT -SNRA BKN012=



ESMK (Everöd)
(94 minuter sedan)
ESMK 071101Z 0712/0718 16008KT 9999 BKN020=



ESTL (Ljungbyhed)
(94 minuter sedan)
ESTL NIL 071101Z 0712/0716 NIL=



EKCH (Köpenhamn)
(94 minuter sedan)
EKCH 071101Z 0712/0812 16015KT 9999 BKN025 TEMPO 0712/0719 16015G28KT -SNRA TEMPO 0719/0808 16015G28KT 4000 SNRA BKN012 TEMPO 0808/0812 17015G30KT -SNRA BKN012=



ESTA (Ängelholm)
(94 minuter sedan)
ESTA 071101Z 0712/0720 13010KT 9999 BKN030=





Kodnycklar till TAF och METAR






LHP

(Eslöv är område se11f i Hela Område 1)







Spotting

Hur fungerar spotthjälpen och Vindkartan?

Markvind är ca 0 m/s.



Vindkartan

Senast uppdaterad 13:35




All data kommer från LFV.se